sensor_id;sensor_type;location;lat;lon;timestamp;P1;durP1;ratioP1;P2;durP2;ratioP2
79130;SDS011;70394;45.194;9.142;2023-07-22T00:01:47;4.85;;;3.10;;
79130;SDS011;70394;45.194;9.142;2023-07-22T00:04:13;4.82;;;2.90;;
79130;SDS011;70394;45.194;9.142;2023-07-22T00:06:38;5.95;;;3.25;;
79130;SDS011;70394;45.194;9.142;2023-07-22T00:09:04;4.35;;;2.70;;
79130;SDS011;70394;45.194;9.142;2023-07-22T00:11:29;5.03;;;2.90;;
79130;SDS011;70394;45.194;9.142;2023-07-22T00:13:54;4.80;;;3.00;;
79130;SDS011;70394;45.194;9.142;2023-07-22T00:16:20;4.40;;;2.50;;
79130;SDS011;70394;45.194;9.142;2023-07-22T00:18:46;4.53;;;2.90;;
79130;SDS011;70394;45.194;9.142;2023-07-22T00:21:12;4.28;;;2.65;;
79130;SDS011;70394;45.194;9.142;2023-07-22T00:23:38;4.03;;;2.63;;
79130;SDS011;70394;45.194;9.142;2023-07-22T00:26:04;7.00;;;3.20;;
79130;SDS011;70394;45.194;9.142;2023-07-22T00:28:29;4.95;;;2.75;;
79130;SDS011;70394;45.194;9.142;2023-07-22T00:30:55;5.18;;;2.88;;
79130;SDS011;70394;45.194;9.142;2023-07-22T00:33:22;5.85;;;2.95;;
79130;SDS011;70394;45.194;9.142;2023-07-22T00:35:48;4.22;;;2.65;;
79130;SDS011;70394;45.194;9.142;2023-07-22T00:38:17;4.97;;;2.90;;
79130;SDS011;70394;45.194;9.142;2023-07-22T00:40:44;5.00;;;2.47;;
79130;SDS011;70394;45.194;9.142;2023-07-22T00:43:09;4.90;;;2.50;;
79130;SDS011;70394;45.194;9.142;2023-07-22T00:45:35;4.50;;;3.00;;
79130;SDS011;70394;45.194;9.142;2023-07-22T00:48:01;5.05;;;3.20;;
79130;SDS011;70394;45.194;9.142;2023-07-22T00:50:27;5.35;;;2.70;;
79130;SDS011;70394;45.194;9.142;2023-07-22T00:52:53;4.43;;;2.92;;
79130;SDS011;70394;45.194;9.142;2023-07-22T00:55:19;6.00;;;2.78;;
79130;SDS011;70394;45.194;9.142;2023-07-22T00:57:44;4.90;;;2.85;;
79130;SDS011;70394;45.194;9.142;2023-07-22T01:00:10;4.82;;;2.90;;
79130;SDS011;70394;45.194;9.142;2023-07-22T01:02:37;5.30;;;3.33;;
79130;SDS011;70394;45.194;9.142;2023-07-22T01:05:04;6.07;;;3.25;;
79130;SDS011;70394;45.194;9.142;2023-07-22T01:07:30;6.28;;;3.05;;
79130;SDS011;70394;45.194;9.142;2023-07-22T01:09:56;4.78;;;3.35;;
79130;SDS011;70394;45.194;9.142;2023-07-22T01:12:23;5.13;;;2.92;;
79130;SDS011;70394;45.194;9.142;2023-07-22T01:14:49;4.57;;;3.30;;
79130;SDS011;70394;45.194;9.142;2023-07-22T01:17:15;4.68;;;2.90;;
79130;SDS011;70394;45.194;9.142;2023-07-22T01:19:40;5.97;;;3.10;;
79130;SDS011;70394;45.194;9.142;2023-07-22T01:22:06;4.70;;;3.10;;
79130;SDS011;70394;45.194;9.142;2023-07-22T01:24:36;5.45;;;2.55;;
79130;SDS011;70394;45.194;9.142;2023-07-22T01:27:02;4.70;;;3.30;;
79130;SDS011;70394;45.194;9.142;2023-07-22T01:29:28;4.85;;;2.33;;
79130;SDS011;70394;45.194;9.142;2023-07-22T01:31:54;4.20;;;2.70;;
79130;SDS011;70394;45.194;9.142;2023-07-22T01:34:20;5.18;;;3.20;;
79130;SDS011;70394;45.194;9.142;2023-07-22T01:36:47;5.43;;;3.22;;
79130;SDS011;70394;45.194;9.142;2023-07-22T01:39:14;5.63;;;2.85;;
79130;SDS011;70394;45.194;9.142;2023-07-22T01:41:40;5.88;;;2.97;;
79130;SDS011;70394;45.194;9.142;2023-07-22T01:44:05;5.00;;;3.10;;
79130;SDS011;70394;45.194;9.142;2023-07-22T01:46:31;4.65;;;3.08;;
79130;SDS011;70394;45.194;9.142;2023-07-22T01:48:56;5.15;;;2.90;;
79130;SDS011;70394;45.194;9.142;2023-07-22T01:51:22;5.97;;;3.25;;
79130;SDS011;70394;45.194;9.142;2023-07-22T01:53:47;4.72;;;2.80;;
79130;SDS011;70394;45.194;9.142;2023-07-22T01:56:13;5.13;;;2.90;;
79130;SDS011;70394;45.194;9.142;2023-07-22T01:58:38;6.15;;;3.10;;
79130;SDS011;70394;45.194;9.142;2023-07-22T02:01:04;6.07;;;3.38;;
79130;SDS011;70394;45.194;9.142;2023-07-22T02:03:29;4.78;;;3.20;;
79130;SDS011;70394;45.194;9.142;2023-07-22T02:06:02;5.47;;;3.38;;
79130;SDS011;70394;45.194;9.142;2023-07-22T02:08:28;4.82;;;3.53;;
79130;SDS011;70394;45.194;9.142;2023-07-22T02:10:54;4.47;;;3.00;;
79130;SDS011;70394;45.194;9.142;2023-07-22T02:13:19;5.30;;;3.20;;
79130;SDS011;70394;45.194;9.142;2023-07-22T02:15:44;4.38;;;2.95;;
79130;SDS011;70394;45.194;9.142;2023-07-22T02:18:10;6.65;;;3.17;;
79130;SDS011;70394;45.194;9.142;2023-07-22T02:20:35;5.72;;;3.10;;
79130;SDS011;70394;45.194;9.142;2023-07-22T02:23:00;5.05;;;3.10;;
79130;SDS011;70394;45.194;9.142;2023-07-22T02:25:26;5.13;;;2.95;;
79130;SDS011;70394;45.194;9.142;2023-07-22T02:27:51;4.82;;;2.95;;
79130;SDS011;70394;45.194;9.142;2023-07-22T02:30:17;5.28;;;3.05;;
79130;SDS011;70394;45.194;9.142;2023-07-22T02:32:42;4.80;;;3.20;;
79130;SDS011;70394;45.194;9.142;2023-07-22T02:35:08;4.85;;;3.20;;
79130;SDS011;70394;45.194;9.142;2023-07-22T02:37:36;5.00;;;3.33;;
79130;SDS011;70394;45.194;9.142;2023-07-22T02:40:02;4.95;;;3.20;;
79130;SDS011;70394;45.194;9.142;2023-07-22T02:42:33;5.07;;;3.20;;
79130;SDS011;70394;45.194;9.142;2023-07-22T02:45:00;5.30;;;3.33;;
79130;SDS011;70394;45.194;9.142;2023-07-22T02:47:26;4.90;;;3.03;;
79130;SDS011;70394;45.194;9.142;2023-07-22T02:49:51;5.38;;;3.42;;
79130;SDS011;70394;45.194;9.142;2023-07-22T02:52:17;4.85;;;2.72;;
79130;SDS011;70394;45.194;9.142;2023-07-22T02:54:42;4.95;;;3.08;;
79130;SDS011;70394;45.194;9.142;2023-07-22T02:57:32;5.38;;;3.33;;
79130;SDS011;70394;45.194;9.142;2023-07-22T02:59:58;4.65;;;2.80;;
79130;SDS011;70394;45.194;9.142;2023-07-22T03:02:24;5.88;;;3.30;;
79130;SDS011;70394;45.194;9.142;2023-07-22T03:04:49;5.07;;;3.65;;
79130;SDS011;70394;45.194;9.142;2023-07-22T03:07:15;5.70;;;3.20;;
79130;SDS011;70394;45.194;9.142;2023-07-22T03:09:40;4.82;;;3.33;;
79130;SDS011;70394;45.194;9.142;2023-07-22T03:12:06;5.82;;;3.80;;
79130;SDS011;70394;45.194;9.142;2023-07-22T03:14:31;4.15;;;2.63;;
79130;SDS011;70394;45.194;9.142;2023-07-22T03:17:01;6.32;;;3.60;;
79130;SDS011;70394;45.194;9.142;2023-07-22T03:19:28;4.95;;;3.28;;
79130;SDS011;70394;45.194;9.142;2023-07-22T03:21:54;5.70;;;3.13;;
79130;SDS011;70394;45.194;9.142;2023-07-22T03:24:20;5.47;;;3.30;;
79130;SDS011;70394;45.194;9.142;2023-07-22T03:26:45;5.82;;;2.88;;
79130;SDS011;70394;45.194;9.142;2023-07-22T03:29:10;4.57;;;3.00;;
79130;SDS011;70394;45.194;9.142;2023-07-22T03:31:36;5.47;;;3.22;;
79130;SDS011;70394;45.194;9.142;2023-07-22T03:34:01;5.22;;;3.20;;
79130;SDS011;70394;45.194;9.142;2023-07-22T03:36:27;5.40;;;3.22;;
79130;SDS011;70394;45.194;9.142;2023-07-22T03:38:52;4.88;;;3.28;;
79130;SDS011;70394;45.194;9.142;2023-07-22T03:41:17;4.63;;;2.95;;
79130;SDS011;70394;45.194;9.142;2023-07-22T03:43:43;4.50;;;2.90;;
79130;SDS011;70394;45.194;9.142;2023-07-22T03:46:08;5.30;;;3.25;;
79130;SDS011;70394;45.194;9.142;2023-07-22T03:48:34;6.13;;;3.30;;
79130;SDS011;70394;45.194;9.142;2023-07-22T03:50:59;5.22;;;2.65;;
79130;SDS011;70394;45.194;9.142;2023-07-22T03:53:25;5.45;;;3.60;;
79130;SDS011;70394;45.194;9.142;2023-07-22T03:55:50;5.22;;;2.67;;
79130;SDS011;70394;45.194;9.142;2023-07-22T03:58:16;6.45;;;4.10;;
79130;SDS011;70394;45.194;9.142;2023-07-22T04:00:41;5.00;;;2.92;;
79130;SDS011;70394;45.194;9.142;2023-07-22T04:03:07;4.80;;;2.72;;
79130;SDS011;70394;45.194;9.142;2023-07-22T04:05:32;5.32;;;3.67;;
79130;SDS011;70394;45.194;9.142;2023-07-22T04:07:58;5.50;;;3.40;;
79130;SDS011;70394;45.194;9.142;2023-07-22T04:10:23;5.70;;;3.17;;
79130;SDS011;70394;45.194;9.142;2023-07-22T04:12:49;5.15;;;3.10;;
79130;SDS011;70394;45.194;9.142;2023-07-22T04:15:14;5.78;;;3.80;;
79130;SDS011;70394;45.194;9.142;2023-07-22T04:17:40;6.13;;;3.20;;
79130;SDS011;70394;45.194;9.142;2023-07-22T04:20:06;5.82;;;3.35;;
79130;SDS011;70394;45.194;9.142;2023-07-22T04:22:33;4.72;;;3.20;;
79130;SDS011;70394;45.194;9.142;2023-07-22T04:24:59;5.68;;;3.85;;
79130;SDS011;70394;45.194;9.142;2023-07-22T04:27:26;5.20;;;3.72;;
79130;SDS011;70394;45.194;9.142;2023-07-22T04:29:51;5.43;;;3.65;;
79130;SDS011;70394;45.194;9.142;2023-07-22T04:32:17;5.95;;;3.47;;
79130;SDS011;70394;45.194;9.142;2023-07-22T04:34:42;5.68;;;3.20;;
79130;SDS011;70394;45.194;9.142;2023-07-22T04:37:08;5.78;;;3.30;;
79130;SDS011;70394;45.194;9.142;2023-07-22T04:39:33;5.65;;;3.55;;
79130;SDS011;70394;45.194;9.142;2023-07-22T04:41:59;5.65;;;3.20;;
79130;SDS011;70394;45.194;9.142;2023-07-22T04:44:24;5.18;;;3.47;;
79130;SDS011;70394;45.194;9.142;2023-07-22T04:46:50;5.93;;;3.47;;
79130;SDS011;70394;45.194;9.142;2023-07-22T04:49:15;5.65;;;3.55;;
79130;SDS011;70394;45.194;9.142;2023-07-22T04:51:44;4.68;;;2.92;;
79130;SDS011;70394;45.194;9.142;2023-07-22T04:54:10;5.10;;;3.30;;
79130;SDS011;70394;45.194;9.142;2023-07-22T04:56:36;7.60;;;4.05;;
79130;SDS011;70394;45.194;9.142;2023-07-22T04:59:01;5.55;;;3.53;;
79130;SDS011;70394;45.194;9.142;2023-07-22T05:01:26;5.63;;;3.42;;
79130;SDS011;70394;45.194;9.142;2023-07-22T05:03:52;5.72;;;3.30;;
79130;SDS011;70394;45.194;9.142;2023-07-22T05:06:20;6.93;;;3.35;;
79130;SDS011;70394;45.194;9.142;2023-07-22T05:08:45;8.55;;;6.07;;
79130;SDS011;70394;45.194;9.142;2023-07-22T05:11:11;11.82;;;7.53;;
79130;SDS011;70394;45.194;9.142;2023-07-22T05:13:36;11.70;;;7.03;;
79130;SDS011;70394;45.194;9.142;2023-07-22T05:16:02;11.75;;;9.05;;
79130;SDS011;70394;45.194;9.142;2023-07-22T05:18:27;10.93;;;7.38;;
79130;SDS011;70394;45.194;9.142;2023-07-22T05:20:53;9.32;;;6.93;;
79130;SDS011;70394;45.194;9.142;2023-07-22T05:23:18;13.20;;;7.65;;
79130;SDS011;70394;45.194;9.142;2023-07-22T05:25:43;13.02;;;7.97;;
79130;SDS011;70394;45.194;9.142;2023-07-22T05:28:09;11.43;;;7.35;;
79130;SDS011;70394;45.194;9.142;2023-07-22T05:30:34;9.95;;;7.15;;
79130;SDS011;70394;45.194;9.142;2023-07-22T05:33:00;9.30;;;6.78;;
79130;SDS011;70394;45.194;9.142;2023-07-22T05:35:25;11.25;;;7.45;;
79130;SDS011;70394;45.194;9.142;2023-07-22T05:37:51;10.85;;;7.38;;
79130;SDS011;70394;45.194;9.142;2023-07-22T05:40:16;10.52;;;7.00;;
79130;SDS011;70394;45.194;9.142;2023-07-22T05:42:41;8.90;;;6.30;;
79130;SDS011;70394;45.194;9.142;2023-07-22T05:45:07;10.25;;;7.13;;
79130;SDS011;70394;45.194;9.142;2023-07-22T05:47:33;9.82;;;6.78;;
79130;SDS011;70394;45.194;9.142;2023-07-22T05:49:58;9.68;;;6.18;;
79130;SDS011;70394;45.194;9.142;2023-07-22T05:52:24;10.43;;;6.28;;
79130;SDS011;70394;45.194;9.142;2023-07-22T05:54:49;9.15;;;6.70;;
79130;SDS011;70394;45.194;9.142;2023-07-22T05:57:15;9.68;;;6.63;;
79130;SDS011;70394;45.194;9.142;2023-07-22T05:59:40;9.95;;;5.97;;
79130;SDS011;70394;45.194;9.142;2023-07-22T06:02:07;9.02;;;5.72;;
79130;SDS011;70394;45.194;9.142;2023-07-22T06:04:33;8.35;;;5.05;;
79130;SDS011;70394;45.194;9.142;2023-07-22T06:06:59;9.80;;;5.43;;
79130;SDS011;70394;45.194;9.142;2023-07-22T06:09:24;8.20;;;5.03;;
79130;SDS011;70394;45.194;9.142;2023-07-22T06:11:49;9.38;;;5.30;;
79130;SDS011;70394;45.194;9.142;2023-07-22T06:14:15;7.45;;;5.03;;
79130;SDS011;70394;45.194;9.142;2023-07-22T06:16:40;7.32;;;4.97;;
79130;SDS011;70394;45.194;9.142;2023-07-22T06:19:06;8.98;;;5.35;;
79130;SDS011;70394;45.194;9.142;2023-07-22T06:21:31;10.75;;;5.63;;
79130;SDS011;70394;45.194;9.142;2023-07-22T06:23:56;9.68;;;5.93;;
79130;SDS011;70394;45.194;9.142;2023-07-22T06:26:22;8.45;;;6.25;;
79130;SDS011;70394;45.194;9.142;2023-07-22T06:28:47;9.20;;;5.63;;
79130;SDS011;70394;45.194;9.142;2023-07-22T06:31:13;10.43;;;6.22;;
79130;SDS011;70394;45.194;9.142;2023-07-22T06:33:38;9.05;;;5.72;;
79130;SDS011;70394;45.194;9.142;2023-07-22T06:36:04;9.98;;;5.57;;
79130;SDS011;70394;45.194;9.142;2023-07-22T06:38:31;9.70;;;6.18;;
79130;SDS011;70394;45.194;9.142;2023-07-22T06:40:56;12.48;;;6.50;;
79130;SDS011;70394;45.194;9.142;2023-07-22T06:43:22;18.08;;;6.90;;
79130;SDS011;70394;45.194;9.142;2023-07-22T06:45:48;12.55;;;5.53;;
79130;SDS011;70394;45.194;9.142;2023-07-22T06:48:13;8.93;;;5.95;;
79130;SDS011;70394;45.194;9.142;2023-07-22T06:50:38;9.88;;;6.20;;
79130;SDS011;70394;45.194;9.142;2023-07-22T06:53:04;7.93;;;5.90;;
79130;SDS011;70394;45.194;9.142;2023-07-22T06:55:29;11.43;;;6.50;;
79130;SDS011;70394;45.194;9.142;2023-07-22T06:57:58;10.45;;;6.70;;
79130;SDS011;70394;45.194;9.142;2023-07-22T07:00:24;11.20;;;6.90;;
79130;SDS011;70394;45.194;9.142;2023-07-22T07:02:50;10.45;;;5.65;;
79130;SDS011;70394;45.194;9.142;2023-07-22T07:05:16;10.60;;;6.32;;
79130;SDS011;70394;45.194;9.142;2023-07-22T07:07:42;9.80;;;6.28;;
79130;SDS011;70394;45.194;9.142;2023-07-22T07:10:07;10.73;;;6.57;;
79130;SDS011;70394;45.194;9.142;2023-07-22T07:12:33;10.63;;;6.47;;
79130;SDS011;70394;45.194;9.142;2023-07-22T07:14:58;9.32;;;5.75;;
79130;SDS011;70394;45.194;9.142;2023-07-22T07:17:24;10.52;;;6.53;;
79130;SDS011;70394;45.194;9.142;2023-07-22T07:19:50;15.18;;;6.60;;
79130;SDS011;70394;45.194;9.142;2023-07-22T07:22:15;12.27;;;6.28;;
79130;SDS011;70394;45.194;9.142;2023-07-22T07:24:41;9.63;;;5.82;;
79130;SDS011;70394;45.194;9.142;2023-07-22T07:27:06;10.30;;;6.22;;
79130;SDS011;70394;45.194;9.142;2023-07-22T07:29:32;7.65;;;5.00;;
79130;SDS011;70394;45.194;9.142;2023-07-22T07:31:57;6.82;;;4.10;;
79130;SDS011;70394;45.194;9.142;2023-07-22T07:34:23;8.60;;;4.95;;
79130;SDS011;70394;45.194;9.142;2023-07-22T07:36:48;7.35;;;4.25;;
79130;SDS011;70394;45.194;9.142;2023-07-22T07:39:14;7.20;;;4.43;;
79130;SDS011;70394;45.194;9.142;2023-07-22T07:41:39;7.85;;;4.15;;
79130;SDS011;70394;45.194;9.142;2023-07-22T07:44:05;7.53;;;3.85;;
79130;SDS011;70394;45.194;9.142;2023-07-22T07:46:30;9.05;;;4.55;;
79130;SDS011;70394;45.194;9.142;2023-07-22T07:48:56;9.70;;;5.00;;
79130;SDS011;70394;45.194;9.142;2023-07-22T07:51:26;10.75;;;4.78;;
79130;SDS011;70394;45.194;9.142;2023-07-22T07:53:53;10.18;;;4.97;;
79130;SDS011;70394;45.194;9.142;2023-07-22T07:56:19;7.18;;;3.67;;
79130;SDS011;70394;45.194;9.142;2023-07-22T07:58:46;5.90;;;3.42;;
79130;SDS011;70394;45.194;9.142;2023-07-22T08:01:12;7.32;;;4.10;;
79130;SDS011;70394;45.194;9.142;2023-07-22T08:03:38;6.57;;;3.42;;
79130;SDS011;70394;45.194;9.142;2023-07-22T08:06:07;10.80;;;3.08;;
79130;SDS011;70394;45.194;9.142;2023-07-22T08:08:33;6.88;;;3.30;;
79130;SDS011;70394;45.194;9.142;2023-07-22T08:11:03;6.55;;;3.50;;
79130;SDS011;70394;45.194;9.142;2023-07-22T08:13:30;6.22;;;3.30;;
79130;SDS011;70394;45.194;9.142;2023-07-22T08:15:57;7.00;;;3.22;;
79130;SDS011;70394;45.194;9.142;2023-07-22T08:18:23;9.48;;;3.47;;
79130;SDS011;70394;45.194;9.142;2023-07-22T08:20:49;9.23;;;3.28;;
79130;SDS011;70394;45.194;9.142;2023-07-22T08:23:15;5.95;;;3.20;;
79130;SDS011;70394;45.194;9.142;2023-07-22T08:25:41;5.13;;;3.00;;
79130;SDS011;70394;45.194;9.142;2023-07-22T08:28:06;8.18;;;3.38;;
79130;SDS011;70394;45.194;9.142;2023-07-22T08:30:32;6.30;;;3.40;;
79130;SDS011;70394;45.194;9.142;2023-07-22T08:32:57;5.05;;;3.13;;
79130;SDS011;70394;45.194;9.142;2023-07-22T08:35:23;8.30;;;3.50;;
79130;SDS011;70394;45.194;9.142;2023-07-22T08:37:48;6.57;;;3.50;;
79130;SDS011;70394;45.194;9.142;2023-07-22T08:40:13;5.72;;;3.03;;
79130;SDS011;70394;45.194;9.142;2023-07-22T08:42:39;8.95;;;3.10;;
79130;SDS011;70394;45.194;9.142;2023-07-22T08:45:06;5.20;;;2.92;;
79130;SDS011;70394;45.194;9.142;2023-07-22T08:47:35;5.90;;;3.08;;
79130;SDS011;70394;45.194;9.142;2023-07-22T08:50:13;7.30;;;3.67;;
79130;SDS011;70394;45.194;9.142;2023-07-22T08:52:41;7.78;;;3.28;;
79130;SDS011;70394;45.194;9.142;2023-07-22T08:55:08;5.53;;;3.10;;
79130;SDS011;70394;45.194;9.142;2023-07-22T08:57:35;7.07;;;4.32;;
79130;SDS011;70394;45.194;9.142;2023-07-22T09:00:02;5.63;;;2.80;;
79130;SDS011;70394;45.194;9.142;2023-07-22T09:02:30;5.40;;;3.10;;
79130;SDS011;70394;45.194;9.142;2023-07-22T09:04:57;6.22;;;3.20;;
79130;SDS011;70394;45.194;9.142;2023-07-22T09:07:23;4.80;;;3.00;;
79130;SDS011;70394;45.194;9.142;2023-07-22T09:09:49;5.53;;;3.40;;
79130;SDS011;70394;45.194;9.142;2023-07-22T09:12:16;5.90;;;3.72;;
79130;SDS011;70394;45.194;9.142;2023-07-22T09:14:42;6.90;;;3.88;;
79130;SDS011;70394;45.194;9.142;2023-07-22T09:17:08;6.68;;;3.60;;
79130;SDS011;70394;45.194;9.142;2023-07-22T09:19:34;6.53;;;3.40;;
79130;SDS011;70394;45.194;9.142;2023-07-22T09:22:00;4.90;;;3.30;;
79130;SDS011;70394;45.194;9.142;2023-07-22T09:24:27;7.30;;;3.40;;
79130;SDS011;70394;45.194;9.142;2023-07-22T09:26:54;7.30;;;3.90;;
79130;SDS011;70394;45.194;9.142;2023-07-22T09:29:36;7.10;;;3.90;;
79130;SDS011;70394;45.194;9.142;2023-07-22T09:32:03;6.55;;;4.07;;
79130;SDS011;70394;45.194;9.142;2023-07-22T09:34:29;7.00;;;4.05;;
79130;SDS011;70394;45.194;9.142;2023-07-22T09:39:21;9.55;;;5.22;;
79130;SDS011;70394;45.194;9.142;2023-07-22T09:41:47;6.28;;;4.50;;
79130;SDS011;70394;45.194;9.142;2023-07-22T09:44:13;9.48;;;3.67;;
79130;SDS011;70394;45.194;9.142;2023-07-22T09:46:39;9.00;;;4.57;;
79130;SDS011;70394;45.194;9.142;2023-07-22T09:49:05;6.32;;;3.85;;
79130;SDS011;70394;45.194;9.142;2023-07-22T09:51:34;7.38;;;3.92;;
79130;SDS011;70394;45.194;9.142;2023-07-22T09:54:01;6.35;;;3.58;;
79130;SDS011;70394;45.194;9.142;2023-07-22T09:56:27;5.70;;;3.33;;
79130;SDS011;70394;45.194;9.142;2023-07-22T09:58:53;6.93;;;3.55;;
79130;SDS011;70394;45.194;9.142;2023-07-22T10:01:19;6.55;;;3.40;;
79130;SDS011;70394;45.194;9.142;2023-07-22T10:03:47;6.65;;;3.60;;
79130;SDS011;70394;45.194;9.142;2023-07-22T10:06:19;5.45;;;3.35;;
79130;SDS011;70394;45.194;9.142;2023-07-22T10:08:46;5.55;;;3.42;;
79130;SDS011;70394;45.194;9.142;2023-07-22T10:11:13;6.35;;;3.72;;
79130;SDS011;70394;45.194;9.142;2023-07-22T10:13:39;7.18;;;3.80;;
79130;SDS011;70394;45.194;9.142;2023-07-22T10:16:05;6.35;;;3.05;;
79130;SDS011;70394;45.194;9.142;2023-07-22T10:18:30;6.13;;;3.33;;
79130;SDS011;70394;45.194;9.142;2023-07-22T10:20:57;8.23;;;3.80;;
79130;SDS011;70394;45.194;9.142;2023-07-22T10:23:24;8.35;;;3.70;;
79130;SDS011;70394;45.194;9.142;2023-07-22T10:25:50;8.45;;;3.72;;
79130;SDS011;70394;45.194;9.142;2023-07-22T10:28:19;6.93;;;3.95;;
79130;SDS011;70394;45.194;9.142;2023-07-22T10:30:48;7.40;;;3.60;;
79130;SDS011;70394;45.194;9.142;2023-07-22T10:33:14;8.32;;;4.03;;
79130;SDS011;70394;45.194;9.142;2023-07-22T10:35:41;6.07;;;3.80;;
79130;SDS011;70394;45.194;9.142;2023-07-22T10:38:13;10.98;;;4.53;;
79130;SDS011;70394;45.194;9.142;2023-07-22T10:43:17;7.93;;;4.07;;
79130;SDS011;70394;45.194;9.142;2023-07-22T10:45:49;7.60;;;3.83;;
79130;SDS011;70394;45.194;9.142;2023-07-22T10:48:16;8.38;;;4.57;;
79130;SDS011;70394;45.194;9.142;2023-07-22T10:50:52;7.90;;;4.50;;
79130;SDS011;70394;45.194;9.142;2023-07-22T11:04:06;8.75;;;4.45;;
79130;SDS011;70394;45.194;9.142;2023-07-22T11:07:00;8.23;;;4.50;;
79130;SDS011;70394;45.194;9.142;2023-07-22T11:14:38;7.30;;;3.72;;
79130;SDS011;70394;45.194;9.142;2023-07-22T11:17:06;6.70;;;4.10;;
79130;SDS011;70394;45.194;9.142;2023-07-22T11:19:36;7.13;;;4.43;;
79130;SDS011;70394;45.194;9.142;2023-07-22T11:22:02;9.07;;;4.90;;
79130;SDS011;70394;45.194;9.142;2023-07-22T11:24:28;7.53;;;4.28;;
79130;SDS011;70394;45.194;9.142;2023-07-22T11:26:54;5.68;;;3.70;;
79130;SDS011;70394;45.194;9.142;2023-07-22T11:29:19;6.05;;;4.13;;
79130;SDS011;70394;45.194;9.142;2023-07-22T11:31:46;7.07;;;4.10;;
79130;SDS011;70394;45.194;9.142;2023-07-22T11:34:13;6.97;;;4.45;;
79130;SDS011;70394;45.194;9.142;2023-07-22T11:36:43;6.65;;;4.05;;
79130;SDS011;70394;45.194;9.142;2023-07-22T11:39:12;9.95;;;4.80;;
79130;SDS011;70394;45.194;9.142;2023-07-22T11:41:40;7.53;;;4.60;;
79130;SDS011;70394;45.194;9.142;2023-07-22T11:44:06;8.35;;;4.32;;
79130;SDS011;70394;45.194;9.142;2023-07-22T11:46:34;6.38;;;4.13;;
79130;SDS011;70394;45.194;9.142;2023-07-22T11:49:01;6.10;;;4.10;;
79130;SDS011;70394;45.194;9.142;2023-07-22T11:51:27;7.78;;;4.57;;
79130;SDS011;70394;45.194;9.142;2023-07-22T11:53:53;8.73;;;4.22;;
79130;SDS011;70394;45.194;9.142;2023-07-22T11:56:23;6.63;;;4.32;;
79130;SDS011;70394;45.194;9.142;2023-07-22T11:58:51;7.53;;;4.97;;
79130;SDS011;70394;45.194;9.142;2023-07-22T12:01:18;6.57;;;4.50;;
79130;SDS011;70394;45.194;9.142;2023-07-22T12:03:44;7.07;;;4.28;;
79130;SDS011;70394;45.194;9.142;2023-07-22T12:06:09;10.32;;;4.88;;
79130;SDS011;70394;45.194;9.142;2023-07-22T12:08:36;8.07;;;4.22;;
79130;SDS011;70394;45.194;9.142;2023-07-22T12:11:01;7.40;;;4.50;;
79130;SDS011;70394;45.194;9.142;2023-07-22T12:13:28;8.35;;;3.95;;
79130;SDS011;70394;45.194;9.142;2023-07-22T12:16:01;8.40;;;4.50;;
79130;SDS011;70394;45.194;9.142;2023-07-22T12:18:27;6.75;;;4.22;;
79130;SDS011;70394;45.194;9.142;2023-07-22T12:20:53;6.57;;;4.15;;
79130;SDS011;70394;45.194;9.142;2023-07-22T12:23:18;8.20;;;4.70;;
79130;SDS011;70394;45.194;9.142;2023-07-22T12:25:44;8.73;;;4.47;;
79130;SDS011;70394;45.194;9.142;2023-07-22T12:28:09;7.90;;;4.90;;
79130;SDS011;70394;45.194;9.142;2023-07-22T12:30:36;8.85;;;4.70;;
79130;SDS011;70394;45.194;9.142;2023-07-22T12:33:01;8.43;;;4.80;;
79130;SDS011;70394;45.194;9.142;2023-07-22T12:35:27;9.02;;;4.68;;
79130;SDS011;70394;45.194;9.142;2023-07-22T12:37:53;7.85;;;5.00;;
79130;SDS011;70394;45.194;9.142;2023-07-22T12:40:18;9.02;;;5.10;;
79130;SDS011;70394;45.194;9.142;2023-07-22T12:42:43;8.23;;;5.20;;
79130;SDS011;70394;45.194;9.142;2023-07-22T12:45:09;8.30;;;5.00;;
79130;SDS011;70394;45.194;9.142;2023-07-22T12:47:35;8.05;;;4.72;;
79130;SDS011;70394;45.194;9.142;2023-07-22T12:50:02;7.70;;;4.57;;
79130;SDS011;70394;45.194;9.142;2023-07-22T12:52:27;7.03;;;4.63;;
79130;SDS011;70394;45.194;9.142;2023-07-22T12:54:52;9.32;;;4.80;;
79130;SDS011;70394;45.194;9.142;2023-07-22T12:57:18;7.20;;;4.35;;
79130;SDS011;70394;45.194;9.142;2023-07-22T12:59:43;8.23;;;4.57;;
79130;SDS011;70394;45.194;9.142;2023-07-22T13:02:09;7.13;;;4.65;;
79130;SDS011;70394;45.194;9.142;2023-07-22T13:04:34;8.90;;;4.90;;
79130;SDS011;70394;45.194;9.142;2023-07-22T13:06:59;9.73;;;4.65;;
79130;SDS011;70394;45.194;9.142;2023-07-22T13:09:25;7.40;;;4.78;;
79130;SDS011;70394;45.194;9.142;2023-07-22T13:11:50;9.57;;;5.53;;
79130;SDS011;70394;45.194;9.142;2023-07-22T13:14:15;10.35;;;5.00;;
79130;SDS011;70394;45.194;9.142;2023-07-22T13:16:43;8.90;;;5.18;;
79130;SDS011;70394;45.194;9.142;2023-07-22T13:19:09;7.85;;;4.85;;
79130;SDS011;70394;45.194;9.142;2023-07-22T13:21:34;8.75;;;4.90;;
79130;SDS011;70394;45.194;9.142;2023-07-22T13:23:59;6.72;;;4.55;;
79130;SDS011;70394;45.194;9.142;2023-07-22T13:26:24;7.93;;;4.85;;
79130;SDS011;70394;45.194;9.142;2023-07-22T13:28:50;8.93;;;5.07;;
79130;SDS011;70394;45.194;9.142;2023-07-22T13:31:15;8.38;;;5.80;;
79130;SDS011;70394;45.194;9.142;2023-07-22T13:33:40;9.65;;;5.65;;
79130;SDS011;70394;45.194;9.142;2023-07-22T13:36:06;8.18;;;5.30;;
79130;SDS011;70394;45.194;9.142;2023-07-22T13:38:31;10.40;;;5.60;;
79130;SDS011;70394;45.194;9.142;2023-07-22T13:40:56;8.73;;;5.38;;
79130;SDS011;70394;45.194;9.142;2023-07-22T13:43:22;10.30;;;5.43;;
79130;SDS011;70394;45.194;9.142;2023-07-22T13:45:47;10.00;;;5.68;;
79130;SDS011;70394;45.194;9.142;2023-07-22T13:48:12;9.48;;;5.28;;
79130;SDS011;70394;45.194;9.142;2023-07-22T13:50:38;7.10;;;4.70;;
79130;SDS011;70394;45.194;9.142;2023-07-22T13:53:03;8.45;;;5.15;;
79130;SDS011;70394;45.194;9.142;2023-07-22T13:55:29;9.10;;;5.40;;
79130;SDS011;70394;45.194;9.142;2023-07-22T13:57:54;7.40;;;4.70;;
79130;SDS011;70394;45.194;9.142;2023-07-22T14:00:19;9.48;;;4.85;;
79130;SDS011;70394;45.194;9.142;2023-07-22T14:02:45;7.53;;;5.20;;
79130;SDS011;70394;45.194;9.142;2023-07-22T14:05:10;9.85;;;5.63;;
79130;SDS011;70394;45.194;9.142;2023-07-22T14:07:35;8.65;;;5.40;;
79130;SDS011;70394;45.194;9.142;2023-07-22T14:10:01;8.60;;;5.35;;
79130;SDS011;70394;45.194;9.142;2023-07-22T14:12:29;8.52;;;5.65;;
79130;SDS011;70394;45.194;9.142;2023-07-22T14:14:54;6.55;;;5.40;;
79130;SDS011;70394;45.194;9.142;2023-07-22T14:17:20;9.02;;;5.60;;
79130;SDS011;70394;45.194;9.142;2023-07-22T14:19:45;7.55;;;5.10;;
79130;SDS011;70394;45.194;9.142;2023-07-22T14:22:10;8.52;;;5.30;;
79130;SDS011;70394;45.194;9.142;2023-07-22T14:24:36;9.07;;;5.47;;
79130;SDS011;70394;45.194;9.142;2023-07-22T14:27:01;8.07;;;5.88;;
79130;SDS011;70394;45.194;9.142;2023-07-22T14:29:27;8.45;;;5.43;;
79130;SDS011;70394;45.194;9.142;2023-07-22T14:31:52;7.63;;;5.35;;
79130;SDS011;70394;45.194;9.142;2023-07-22T14:34:17;7.70;;;5.13;;
79130;SDS011;70394;45.194;9.142;2023-07-22T14:36:43;6.75;;;4.88;;
79130;SDS011;70394;45.194;9.142;2023-07-22T14:39:08;7.72;;;5.05;;
79130;SDS011;70394;45.194;9.142;2023-07-22T14:41:34;7.60;;;4.95;;
79130;SDS011;70394;45.194;9.142;2023-07-22T14:43:59;7.07;;;5.40;;
79130;SDS011;70394;45.194;9.142;2023-07-22T14:46:25;6.65;;;4.97;;
79130;SDS011;70394;45.194;9.142;2023-07-22T14:48:50;7.60;;;5.38;;
79130;SDS011;70394;45.194;9.142;2023-07-22T14:51:16;7.38;;;5.10;;
79130;SDS011;70394;45.194;9.142;2023-07-22T14:53:41;6.72;;;4.68;;
79130;SDS011;70394;45.194;9.142;2023-07-22T14:56:06;7.47;;;5.40;;
79130;SDS011;70394;45.194;9.142;2023-07-22T14:58:32;6.72;;;4.72;;
79130;SDS011;70394;45.194;9.142;2023-07-22T15:00:57;8.85;;;4.88;;